sensor_id;sensor_type;location;lat;lon;timestamp;pressure;altitude;pressure_sealevel;temperature;humidity
12785;BME280;6456;42.680;23.260;2022-10-26T00:01:04;95117.63;;;17.06;73.96
12785;BME280;6456;42.680;23.260;2022-10-26T00:03:33;95126.56;;;17.17;74.06
12785;BME280;6456;42.680;23.260;2022-10-26T00:06:05;95128.13;;;17.13;74.27
12785;BME280;6456;42.680;23.260;2022-10-26T00:08:32;95112.00;;;17.03;74.36
12785;BME280;6456;42.680;23.260;2022-10-26T00:10:59;95121.66;;;17.09;74.65
12785;BME280;6456;42.680;23.260;2022-10-26T00:13:27;95117.53;;;17.01;74.61
12785;BME280;6456;42.680;23.260;2022-10-26T00:15:54;95123.53;;;17.08;75.00
12785;BME280;6456;42.680;23.260;2022-10-26T00:18:21;95134.84;;;17.04;75.00
12785;BME280;6456;42.680;23.260;2022-10-26T00:20:48;95104.69;;;16.82;74.87
12785;BME280;6456;42.680;23.260;2022-10-26T00:23:15;95092.94;;;16.78;74.98
12785;BME280;6456;42.680;23.260;2022-10-26T00:25:42;95124.63;;;16.96;75.37
12785;BME280;6456;42.680;23.260;2022-10-26T00:28:09;95054.34;;;16.47;74.90
12785;BME280;6456;42.680;23.260;2022-10-26T00:30:39;95088.38;;;16.61;74.95
12785;BME280;6456;42.680;23.260;2022-10-26T00:33:09;95077.91;;;16.55;74.74
12785;BME280;6456;42.680;23.260;2022-10-26T00:35:38;95137.84;;;16.91;74.66
12785;BME280;6456;42.680;23.260;2022-10-26T00:38:05;95141.28;;;16.91;75.37
12785;BME280;6456;42.680;23.260;2022-10-26T00:40:32;95129.34;;;16.77;76.00
12785;BME280;6456;42.680;23.260;2022-10-26T00:42:59;95084.75;;;16.39;76.41
12785;BME280;6456;42.680;23.260;2022-10-26T00:45:29;95132.81;;;16.78;76.40
12785;BME280;6456;42.680;23.260;2022-10-26T00:48:00;95134.81;;;16.71;76.30
12785;BME280;6456;42.680;23.260;2022-10-26T00:50:31;95132.38;;;16.69;76.08
12785;BME280;6456;42.680;23.260;2022-10-26T00:52:59;95109.88;;;16.48;76.86
12785;BME280;6456;42.680;23.260;2022-10-26T00:55:31;95067.50;;;16.25;76.77
12785;BME280;6456;42.680;23.260;2022-10-26T00:58:00;95095.22;;;16.46;76.42
12785;BME280;6456;42.680;23.260;2022-10-26T01:00:28;95121.34;;;16.60;76.52
12785;BME280;6456;42.680;23.260;2022-10-26T01:02:59;95090.63;;;16.41;76.71
12785;BME280;6456;42.680;23.260;2022-10-26T01:05:27;95102.97;;;16.47;76.53
12785;BME280;6456;42.680;23.260;2022-10-26T01:07:55;95122.81;;;16.56;76.82
12785;BME280;6456;42.680;23.260;2022-10-26T01:10:24;95116.47;;;16.57;77.03
12785;BME280;6456;42.680;23.260;2022-10-26T01:12:52;95060.47;;;16.19;77.07
12785;BME280;6456;42.680;23.260;2022-10-26T01:15:23;95109.78;;;16.55;77.39
12785;BME280;6456;42.680;23.260;2022-10-26T01:18:00;95088.94;;;16.35;77.49
12785;BME280;6456;42.680;23.260;2022-10-26T01:20:58;95105.06;;;16.45;77.33
12785;BME280;6456;42.680;23.260;2022-10-26T01:23:38;95107.72;;;16.45;76.88
12785;BME280;6456;42.680;23.260;2022-10-26T01:26:26;95095.53;;;16.33;77.16
12785;BME280;6456;42.680;23.260;2022-10-26T01:29:12;95115.81;;;16.39;76.90
12785;BME280;6456;42.680;23.260;2022-10-26T01:31:45;95099.13;;;16.27;77.09
12785;BME280;6456;42.680;23.260;2022-10-26T01:34:20;95110.84;;;16.42;76.53
12785;BME280;6456;42.680;23.260;2022-10-26T01:36:53;95050.81;;;16.01;76.69
12785;BME280;6456;42.680;23.260;2022-10-26T01:39:23;95110.28;;;16.40;76.88
12785;BME280;6456;42.680;23.260;2022-10-26T01:41:56;95106.00;;;16.39;77.50
12785;BME280;6456;42.680;23.260;2022-10-26T01:44:45;95028.00;;;15.89;77.56
12785;BME280;6456;42.680;23.260;2022-10-26T01:47:15;95051.06;;;16.00;77.63
12785;BME280;6456;42.680;23.260;2022-10-26T01:49:47;95042.28;;;15.99;78.24
12785;BME280;6456;42.680;23.260;2022-10-26T01:52:16;95095.63;;;16.38;78.35
12785;BME280;6456;42.680;23.260;2022-10-26T01:54:43;95088.44;;;16.38;78.29
12785;BME280;6456;42.680;23.260;2022-10-26T01:57:12;95081.69;;;16.31;78.82
12785;BME280;6456;42.680;23.260;2022-10-26T01:59:51;95043.09;;;16.00;79.11
12785;BME280;6456;42.680;23.260;2022-10-26T02:03:00;95091.50;;;16.30;79.74
12785;BME280;6456;42.680;23.260;2022-10-26T02:05:43;95046.78;;;15.99;79.98
12785;BME280;6456;42.680;23.260;2022-10-26T02:08:24;95093.09;;;16.31;80.08
12785;BME280;6456;42.680;23.260;2022-10-26T02:11:01;95083.91;;;16.22;80.37
12785;BME280;6456;42.680;23.260;2022-10-26T02:13:35;95057.84;;;16.08;80.28
12785;BME280;6456;42.680;23.260;2022-10-26T02:16:13;95040.47;;;15.88;80.28
12785;BME280;6456;42.680;23.260;2022-10-26T02:18:49;95096.91;;;16.24;80.27
12785;BME280;6456;42.680;23.260;2022-10-26T02:21:20;95083.94;;;16.11;80.00
12785;BME280;6456;42.680;23.260;2022-10-26T02:23:50;95089.00;;;16.12;80.09
12785;BME280;6456;42.680;23.260;2022-10-26T02:26:21;95114.63;;;16.18;80.51
12785;BME280;6456;42.680;23.260;2022-10-26T02:28:53;95059.44;;;15.80;80.18
12785;BME280;6456;42.680;23.260;2022-10-26T02:31:23;95088.44;;;15.98;80.40
12785;BME280;6456;42.680;23.260;2022-10-26T02:33:54;95028.91;;;15.55;82.02
12785;BME280;6456;42.680;23.260;2022-10-26T02:36:24;95051.38;;;15.64;82.16
12785;BME280;6456;42.680;23.260;2022-10-26T02:38:53;95094.63;;;15.64;83.31
12785;BME280;6456;42.680;23.260;2022-10-26T02:41:23;95053.19;;;15.28;84.12
12785;BME280;6456;42.680;23.260;2022-10-26T02:43:53;95089.84;;;15.31;84.72
12785;BME280;6456;42.680;23.260;2022-10-26T02:46:24;95114.09;;;15.47;84.88
12785;BME280;6456;42.680;23.260;2022-10-26T02:48:55;95054.91;;;15.11;84.90
12785;BME280;6456;42.680;23.260;2022-10-26T02:51:28;95091.94;;;15.41;85.14
12785;BME280;6456;42.680;23.260;2022-10-26T02:53:59;95096.91;;;15.37;85.59
12785;BME280;6456;42.680;23.260;2022-10-26T02:56:31;95116.03;;;15.39;86.28
12785;BME280;6456;42.680;23.260;2022-10-26T02:59:03;95118.00;;;15.32;86.28
12785;BME280;6456;42.680;23.260;2022-10-26T03:01:32;95100.09;;;15.16;86.36
12785;BME280;6456;42.680;23.260;2022-10-26T03:04:01;95069.31;;;14.92;86.73
12785;BME280;6456;42.680;23.260;2022-10-26T03:06:28;95124.53;;;15.18;87.23
12785;BME280;6456;42.680;23.260;2022-10-26T03:08:54;95068.78;;;14.60;87.95
12785;BME280;6456;42.680;23.260;2022-10-26T03:11:21;95064.84;;;14.51;88.06
12785;BME280;6456;42.680;23.260;2022-10-26T03:13:48;95113.69;;;14.55;89.83
12785;BME280;6456;42.680;23.260;2022-10-26T03:16:15;95036.03;;;13.95;90.81
12785;BME280;6456;42.680;23.260;2022-10-26T03:18:42;95149.16;;;14.66;90.93
12785;BME280;6456;42.680;23.260;2022-10-26T03:21:10;95134.63;;;14.57;90.58
12785;BME280;6456;42.680;23.260;2022-10-26T03:23:37;95143.56;;;14.44;91.30
12785;BME280;6456;42.680;23.260;2022-10-26T03:26:04;95161.66;;;14.47;92.58
12785;BME280;6456;42.680;23.260;2022-10-26T03:28:31;95163.47;;;14.47;93.24
12785;BME280;6456;42.680;23.260;2022-10-26T03:30:58;95164.97;;;14.43;93.36
12785;BME280;6456;42.680;23.260;2022-10-26T03:33:25;95097.16;;;14.05;93.43
12785;BME280;6456;42.680;23.260;2022-10-26T03:35:55;95168.91;;;14.52;94.65
12785;BME280;6456;42.680;23.260;2022-10-26T03:38:23;95146.19;;;14.44;95.65
12785;BME280;6456;42.680;23.260;2022-10-26T03:40:50;95148.41;;;14.47;97.00
12785;BME280;6456;42.680;23.260;2022-10-26T03:43:17;95102.75;;;14.15;95.69
12785;BME280;6456;42.680;23.260;2022-10-26T03:45:44;95171.59;;;14.63;95.04
12785;BME280;6456;42.680;23.260;2022-10-26T03:48:11;95150.28;;;14.58;95.50
12785;BME280;6456;42.680;23.260;2022-10-26T03:50:38;95165.63;;;14.68;95.35
12785;BME280;6456;42.680;23.260;2022-10-26T03:53:05;95102.81;;;14.27;94.84
12785;BME280;6456;42.680;23.260;2022-10-26T03:55:33;95166.00;;;14.71;94.56
12785;BME280;6456;42.680;23.260;2022-10-26T03:58:00;95121.94;;;14.47;94.23
12785;BME280;6456;42.680;23.260;2022-10-26T04:00:28;95160.25;;;14.74;94.47
12785;BME280;6456;42.680;23.260;2022-10-26T04:02:56;95134.50;;;14.52;93.83
12785;BME280;6456;42.680;23.260;2022-10-26T04:05:24;95172.84;;;14.79;93.14
12785;BME280;6456;42.680;23.260;2022-10-26T04:07:52;95089.34;;;14.29;92.64
12785;BME280;6456;42.680;23.260;2022-10-26T04:10:19;95162.22;;;14.79;92.18
12785;BME280;6456;42.680;23.260;2022-10-26T04:12:47;95164.31;;;14.77;91.63
12785;BME280;6456;42.680;23.260;2022-10-26T04:15:16;95165.13;;;14.77;91.25
12785;BME280;6456;42.680;23.260;2022-10-26T04:17:44;95121.56;;;14.44;90.55
12785;BME280;6456;42.680;23.260;2022-10-26T04:20:11;95122.91;;;14.35;93.04
12785;BME280;6456;42.680;23.260;2022-10-26T04:22:57;95168.06;;;14.69;93.07
12785;BME280;6456;42.680;23.260;2022-10-26T04:25:24;95117.19;;;14.38;93.61
12785;BME280;6456;42.680;23.260;2022-10-26T04:27:52;95172.13;;;14.72;94.32
12785;BME280;6456;42.680;23.260;2022-10-26T04:30:19;95149.25;;;14.59;94.76
12785;BME280;6456;42.680;23.260;2022-10-26T04:32:49;95137.44;;;14.44;95.65
12785;BME280;6456;42.680;23.260;2022-10-26T04:35:16;95108.03;;;14.34;96.00
12785;BME280;6456;42.680;23.260;2022-10-26T04:37:43;95163.34;;;14.71;95.64
12785;BME280;6456;42.680;23.260;2022-10-26T04:40:10;95172.13;;;14.72;95.16
12785;BME280;6456;42.680;23.260;2022-10-26T04:42:41;95163.59;;;14.70;94.18
12785;BME280;6456;42.680;23.260;2022-10-26T04:45:11;95119.50;;;14.46;93.69
12785;BME280;6456;42.680;23.260;2022-10-26T04:47:38;95162.53;;;14.71;92.85
12785;BME280;6456;42.680;23.260;2022-10-26T04:50:23;95147.34;;;14.66;92.46
12785;BME280;6456;42.680;23.260;2022-10-26T04:52:50;95147.44;;;14.60;91.76
12785;BME280;6456;42.680;23.260;2022-10-26T04:55:17;95167.69;;;14.66;92.13
12785;BME280;6456;42.680;23.260;2022-10-26T04:57:44;95164.75;;;14.74;92.33
12785;BME280;6456;42.680;23.260;2022-10-26T05:00:13;95155.03;;;14.68;92.75
12785;BME280;6456;42.680;23.260;2022-10-26T05:02:40;95169.59;;;14.77;92.94
12785;BME280;6456;42.680;23.260;2022-10-26T05:05:07;95189.56;;;14.91;92.63
12785;BME280;6456;42.680;23.260;2022-10-26T05:07:34;95188.56;;;14.92;92.22
12785;BME280;6456;42.680;23.260;2022-10-26T05:10:01;95185.91;;;14.92;92.10
12785;BME280;6456;42.680;23.260;2022-10-26T05:12:28;95170.31;;;14.84;92.05
12785;BME280;6456;42.680;23.260;2022-10-26T05:14:55;95195.81;;;14.97;91.82
12785;BME280;6456;42.680;23.260;2022-10-26T05:17:25;95187.06;;;14.96;91.97
12785;BME280;6456;42.680;23.260;2022-10-26T05:19:52;95194.19;;;14.96;92.13
12785;BME280;6456;42.680;23.260;2022-10-26T05:22:22;95191.09;;;14.99;92.13
12785;BME280;6456;42.680;23.260;2022-10-26T05:24:49;95192.94;;;14.98;92.26
12785;BME280;6456;42.680;23.260;2022-10-26T05:27:16;95185.22;;;14.97;92.42
12785;BME280;6456;42.680;23.260;2022-10-26T05:29:43;95134.41;;;14.58;92.20
12785;BME280;6456;42.680;23.260;2022-10-26T05:32:10;95140.88;;;14.62;93.07
12785;BME280;6456;42.680;23.260;2022-10-26T05:34:38;95074.25;;;14.18;94.79
12785;BME280;6456;42.680;23.260;2022-10-26T05:37:05;95190.63;;;14.90;94.29
12785;BME280;6456;42.680;23.260;2022-10-26T05:39:32;95207.25;;;14.97;93.75
12785;BME280;6456;42.680;23.260;2022-10-26T05:41:59;95209.88;;;14.97;94.15
12785;BME280;6456;42.680;23.260;2022-10-26T05:44:26;95170.78;;;14.63;94.93
12785;BME280;6456;42.680;23.260;2022-10-26T05:46:52;95196.38;;;14.87;95.00
12785;BME280;6456;42.680;23.260;2022-10-26T05:49:19;95153.66;;;14.65;94.75
12785;BME280;6456;42.680;23.260;2022-10-26T05:51:47;95212.81;;;15.07;94.65
12785;BME280;6456;42.680;23.260;2022-10-26T05:54:14;95217.53;;;15.05;94.90
12785;BME280;6456;42.680;23.260;2022-10-26T05:56:42;95194.41;;;14.83;94.98
12785;BME280;6456;42.680;23.260;2022-10-26T05:59:11;95216.47;;;15.06;94.93
12785;BME280;6456;42.680;23.260;2022-10-26T06:01:53;95225.28;;;15.18;94.77
12785;BME280;6456;42.680;23.260;2022-10-26T06:04:35;95237.06;;;15.22;94.28
12785;BME280;6456;42.680;23.260;2022-10-26T06:07:09;95238.22;;;15.26;93.79
12785;BME280;6456;42.680;23.260;2022-10-26T06:09:37;95242.81;;;15.31;93.90
12785;BME280;6456;42.680;23.260;2022-10-26T06:12:06;95249.53;;;15.33;94.21
12785;BME280;6456;42.680;23.260;2022-10-26T06:14:34;95226.00;;;15.25;94.84
12785;BME280;6456;42.680;23.260;2022-10-26T06:17:21;95199.75;;;15.06;94.80
12785;BME280;6456;42.680;23.260;2022-10-26T06:20:02;95197.72;;;15.08;94.72
12785;BME280;6456;42.680;23.260;2022-10-26T06:22:51;95205.31;;;15.16;94.43
12785;BME280;6456;42.680;23.260;2022-10-26T06:25:27;95198.50;;;15.08;94.50
12785;BME280;6456;42.680;23.260;2022-10-26T06:28:06;95195.38;;;15.00;94.66
12785;BME280;6456;42.680;23.260;2022-10-26T06:30:38;95242.31;;;15.40;93.63
12785;BME280;6456;42.680;23.260;2022-10-26T06:33:07;95200.72;;;15.11;94.07
12785;BME280;6456;42.680;23.260;2022-10-26T06:35:42;95251.22;;;15.46;94.65
12785;BME280;6456;42.680;23.260;2022-10-26T06:38:17;95255.94;;;15.56;93.43
12785;BME280;6456;42.680;23.260;2022-10-26T06:40:48;95233.88;;;15.43;92.55
12785;BME280;6456;42.680;23.260;2022-10-26T06:43:21;95204.31;;;15.28;92.46
12785;BME280;6456;42.680;23.260;2022-10-26T06:45:53;95197.66;;;15.37;93.11
12785;BME280;6456;42.680;23.260;2022-10-26T06:48:24;95224.47;;;15.48;91.99
12785;BME280;6456;42.680;23.260;2022-10-26T06:50:53;95263.97;;;15.79;92.45
12785;BME280;6456;42.680;23.260;2022-10-26T06:53:27;95232.19;;;15.61;92.12
12785;BME280;6456;42.680;23.260;2022-10-26T06:55:58;95244.69;;;15.72;90.89
12785;BME280;6456;42.680;23.260;2022-10-26T06:58:28;95267.66;;;15.89;90.84
12785;BME280;6456;42.680;23.260;2022-10-26T07:00:56;95271.94;;;15.90;90.36
12785;BME280;6456;42.680;23.260;2022-10-26T07:03:23;95217.66;;;15.63;91.22
12785;BME280;6456;42.680;23.260;2022-10-26T07:05:51;95271.78;;;15.74;93.91
12785;BME280;6456;42.680;23.260;2022-10-26T07:08:18;95236.41;;;15.38;92.16
12785;BME280;6456;42.680;23.260;2022-10-26T07:10:46;95229.66;;;15.54;93.01
12785;BME280;6456;42.680;23.260;2022-10-26T07:13:13;95275.28;;;15.86;91.70
12785;BME280;6456;42.680;23.260;2022-10-26T07:15:40;95265.91;;;15.83;92.42
12785;BME280;6456;42.680;23.260;2022-10-26T07:18:08;95274.47;;;15.85;91.74
12785;BME280;6456;42.680;23.260;2022-10-26T07:20:36;95265.69;;;15.73;92.41
12785;BME280;6456;42.680;23.260;2022-10-26T07:23:04;95228.41;;;15.57;92.30
12785;BME280;6456;42.680;23.260;2022-10-26T07:25:33;95279.22;;;15.95;90.92
12785;BME280;6456;42.680;23.260;2022-10-26T07:28:04;95220.22;;;15.70;89.67
12785;BME280;6456;42.680;23.260;2022-10-26T07:30:33;95280.38;;;15.99;90.81
12785;BME280;6456;42.680;23.260;2022-10-26T07:33:02;95211.63;;;15.45;91.91
12785;BME280;6456;42.680;23.260;2022-10-26T07:35:29;95225.41;;;15.65;91.06
12785;BME280;6456;42.680;23.260;2022-10-26T07:37:56;95244.13;;;15.70;92.06
12785;BME280;6456;42.680;23.260;2022-10-26T07:40:24;95239.94;;;15.74;92.29
12785;BME280;6456;42.680;23.260;2022-10-26T07:42:51;95222.41;;;15.50;93.24
12785;BME280;6456;42.680;23.260;2022-10-26T07:45:19;95253.00;;;15.87;92.09
12785;BME280;6456;42.680;23.260;2022-10-26T07:47:48;95264.56;;;16.04;91.29
12785;BME280;6456;42.680;23.260;2022-10-26T07:50:15;95231.22;;;15.85;92.02
12785;BME280;6456;42.680;23.260;2022-10-26T07:52:42;95272.31;;;16.17;92.48
12785;BME280;6456;42.680;23.260;2022-10-26T07:55:09;95227.72;;;15.96;88.69
12785;BME280;6456;42.680;23.260;2022-10-26T07:57:37;95258.91;;;16.24;89.47
12785;BME280;6456;42.680;23.260;2022-10-26T08:00:06;95251.41;;;16.32;91.05
12785;BME280;6456;42.680;23.260;2022-10-26T08:02:35;95201.56;;;15.99;90.95
12785;BME280;6456;42.680;23.260;2022-10-26T08:05:02;95246.78;;;16.28;92.97
12785;BME280;6456;42.680;23.260;2022-10-26T08:07:29;95262.47;;;16.41;91.30
12785;BME280;6456;42.680;23.260;2022-10-26T08:09:56;95243.44;;;16.32;91.67
12785;BME280;6456;42.680;23.260;2022-10-26T08:12:23;95209.94;;;16.31;89.13
12785;BME280;6456;42.680;23.260;2022-10-26T08:14:50;95203.69;;;16.37;89.08
12785;BME280;6456;42.680;23.260;2022-10-26T08:17:17;95260.47;;;16.83;87.79
12785;BME280;6456;42.680;23.260;2022-10-26T08:19:48;95202.84;;;16.48;87.49
12785;BME280;6456;42.680;23.260;2022-10-26T08:22:15;95266.66;;;17.00;88.24
12785;BME280;6456;42.680;23.260;2022-10-26T08:24:41;95259.34;;;17.07;86.03
12785;BME280;6456;42.680;23.260;2022-10-26T08:27:11;95254.03;;;17.07;86.84
12785;BME280;6456;42.680;23.260;2022-10-26T08:29:38;95254.13;;;17.12;84.80
12785;BME280;6456;42.680;23.260;2022-10-26T08:32:05;95257.44;;;17.19;83.50
12785;BME280;6456;42.680;23.260;2022-10-26T08:34:32;95149.66;;;16.55;83.99
12785;BME280;6456;42.680;23.260;2022-10-26T08:37:00;95204.97;;;16.86;83.54
12785;BME280;6456;42.680;23.260;2022-10-26T08:39:27;95259.81;;;17.32;83.52
12785;BME280;6456;42.680;23.260;2022-10-26T08:42:00;95242.75;;;17.28;81.97
12785;BME280;6456;42.680;23.260;2022-10-26T08:44:32;95203.84;;;17.10;80.41
12785;BME280;6456;42.680;23.260;2022-10-26T08:47:05;95231.38;;;17.33;78.97
12785;BME280;6456;42.680;23.260;2022-10-26T08:49:39;95257.91;;;17.44;79.57
12785;BME280;6456;42.680;23.260;2022-10-26T08:52:13;95250.91;;;17.38;79.37
12785;BME280;6456;42.680;23.260;2022-10-26T08:54:46;95235.41;;;17.35;79.80
12785;BME280;6456;42.680;23.260;2022-10-26T08:57:19;95256.16;;;17.50;78.12
12785;BME280;6456;42.680;23.260;2022-10-26T08:59:52;95222.50;;;17.27;75.80
12785;BME280;6456;42.680;23.260;2022-10-26T09:02:20;95255.13;;;17.51;74.24
12785;BME280;6456;42.680;23.260;2022-10-26T09:04:49;95245.06;;;17.53;74.88
12785;BME280;6456;42.680;23.260;2022-10-26T09:07:33;95266.69;;;17.73;73.92
12785;BME280;6456;42.680;23.260;2022-10-26T09:10:14;95214.31;;;17.45;73.92
12785;BME280;6456;42.680;23.260;2022-10-26T09:12:45;95268.88;;;17.92;72.68
12785;BME280;6456;42.680;23.260;2022-10-26T09:15:21;95198.63;;;17.60;71.91
12785;BME280;6456;42.680;23.260;2022-10-26T09:17:58;95247.75;;;17.86;73.04
12785;BME280;6456;42.680;23.260;2022-10-26T09:20:44;95255.91;;;17.96;73.30
12785;BME280;6456;42.680;23.260;2022-10-26T09:23:28;95265.66;;;18.07;73.82
12785;BME280;6456;42.680;23.260;2022-10-26T09:25:58;95260.66;;;18.11;71.40
12785;BME280;6456;42.680;23.260;2022-10-26T09:28:27;95261.59;;;18.21;71.68
12785;BME280;6456;42.680;23.260;2022-10-26T09:30:58;95224.88;;;18.07;67.93
12785;BME280;6456;42.680;23.260;2022-10-26T09:33:25;95228.63;;;18.06;67.20
12785;BME280;6456;42.680;23.260;2022-10-26T09:35:56;95267.47;;;18.40;68.20
12785;BME280;6456;42.680;23.260;2022-10-26T09:38:28;95256.50;;;18.36;68.10
12785;BME280;6456;42.680;23.260;2022-10-26T09:41:00;95262.81;;;18.47;69.00
12785;BME280;6456;42.680;23.260;2022-10-26T09:43:32;95252.78;;;18.54;69.81
12785;BME280;6456;42.680;23.260;2022-10-26T09:46:02;95251.41;;;18.51;69.29
12785;BME280;6456;42.680;23.260;2022-10-26T09:48:34;95259.41;;;18.51;67.76
12785;BME280;6456;42.680;23.260;2022-10-26T09:51:02;95222.09;;;18.35;67.57
12785;BME280;6456;42.680;23.260;2022-10-26T09:53:31;95257.75;;;18.67;67.13
12785;BME280;6456;42.680;23.260;2022-10-26T09:56:02;95233.56;;;18.52;66.17
12785;BME280;6456;42.680;23.260;2022-10-26T09:58:34;95251.38;;;18.68;67.58
12785;BME280;6456;42.680;23.260;2022-10-26T10:01:02;95215.09;;;18.67;66.16
12785;BME280;6456;42.680;23.260;2022-10-26T10:03:30;95179.63;;;18.45;65.43
12785;BME280;6456;42.680;23.260;2022-10-26T10:06:14;95223.22;;;18.77;64.14
12785;BME280;6456;42.680;23.260;2022-10-26T10:08:43;95228.44;;;18.89;63.70
12785;BME280;6456;42.680;23.260;2022-10-26T10:11:36;95189.50;;;18.66;65.38
12785;BME280;6456;42.680;23.260;2022-10-26T10:14:06;95159.56;;;18.59;65.88
12785;BME280;6456;42.680;23.260;2022-10-26T10:16:34;95222.81;;;19.12;64.94
12785;BME280;6456;42.680;23.260;2022-10-26T10:19:01;95218.91;;;19.19;63.41
12785;BME280;6456;42.680;23.260;2022-10-26T10:21:35;95217.41;;;19.29;63.61
12785;BME280;6456;42.680;23.260;2022-10-26T10:24:21;95215.91;;;19.38;62.61
12785;BME280;6456;42.680;23.260;2022-10-26T10:27:00;95223.97;;;19.43;63.07
12785;BME280;6456;42.680;23.260;2022-10-26T10:29:29;95215.19;;;19.47;63.47
12785;BME280;6456;42.680;23.260;2022-10-26T10:31:57;95222.66;;;19.45;61.22
12785;BME280;6456;42.680;23.260;2022-10-26T10:34:24;95203.75;;;19.52;60.74
12785;BME280;6456;42.680;23.260;2022-10-26T10:36:52;95212.13;;;19.60;61.23
12785;BME280;6456;42.680;23.260;2022-10-26T10:39:38;95213.25;;;19.69;62.08
12785;BME280;6456;42.680;23.260;2022-10-26T10:42:15;95203.13;;;19.66;58.88
12785;BME280;6456;42.680;23.260;2022-10-26T10:44:45;95161.22;;;19.40;58.66
12785;BME280;6456;42.680;23.260;2022-10-26T10:47:20;95189.41;;;19.58;60.14
12785;BME280;6456;42.680;23.260;2022-10-26T10:49:53;95195.94;;;19.72;60.67
12785;BME280;6456;42.680;23.260;2022-10-26T10:52:26;95196.00;;;19.82;60.15
12785;BME280;6456;42.680;23.260;2022-10-26T10:55:13;95194.91;;;19.78;58.86
12785;BME280;6456;42.680;23.260;2022-10-26T10:57:51;95124.84;;;19.34;57.67
12785;BME280;6456;42.680;23.260;2022-10-26T11:00:24;95192.88;;;19.90;59.22
12785;BME280;6456;42.680;23.260;2022-10-26T11:03:20;95135.44;;;19.51;56.42
12785;BME280;6456;42.680;23.260;2022-10-26T11:06:14;95172.50;;;19.84;57.17
12785;BME280;6456;42.680;23.260;2022-10-26T11:08:48;95181.47;;;20.05;58.34
12785;BME280;6456;42.680;23.260;2022-10-26T11:11:23;95177.50;;;20.12;53.56
12785;BME280;6456;42.680;23.260;2022-10-26T11:14:04;95124.16;;;19.80;53.24
12785;BME280;6456;42.680;23.260;2022-10-26T11:16:36;95086.97;;;19.64;52.69
12785;BME280;6456;42.680;23.260;2022-10-26T11:19:11;95132.78;;;19.93;50.69
12785;BME280;6456;42.680;23.260;2022-10-26T11:21:43;95175.47;;;20.24;50.44
12785;BME280;6456;42.680;23.260;2022-10-26T11:24:16;95178.44;;;20.28;48.01
12785;BME280;6456;42.680;23.260;2022-10-26T11:26:52;95168.75;;;20.22;49.20
12785;BME280;6456;42.680;23.260;2022-10-26T11:29:30;95175.53;;;20.34;48.91
12785;BME280;6456;42.680;23.260;2022-10-26T11:32:04;95175.03;;;20.42;47.96
12785;BME280;6456;42.680;23.260;2022-10-26T11:34:37;95166.53;;;20.51;48.35
12785;BME280;6456;42.680;23.260;2022-10-26T11:37:13;95154.53;;;20.53;49.28
12785;BME280;6456;42.680;23.260;2022-10-26T11:39:44;95169.28;;;20.66;49.84
12785;BME280;6456;42.680;23.260;2022-10-26T11:42:20;95145.44;;;20.54;46.98
12785;BME280;6456;42.680;23.260;2022-10-26T11:44:52;95109.28;;;20.36;47.16
12785;BME280;6456;42.680;23.260;2022-10-26T11:47:24;95159.66;;;20.70;46.18
12785;BME280;6456;42.680;23.260;2022-10-26T11:50:02;95099.63;;;20.30;45.63
12785;BME280;6456;42.680;23.260;2022-10-26T11:52:36;95154.88;;;20.77;46.16
12785;BME280;6456;42.680;23.260;2022-10-26T11:55:08;95109.34;;;20.52;46.97
12785;BME280;6456;42.680;23.260;2022-10-26T11:57:37;95165.06;;;20.85;45.46
12785;BME280;6456;42.680;23.260;2022-10-26T12:00:06;95158.41;;;20.92;44.79
12785;BME280;6456;42.680;23.260;2022-10-26T12:02:38;95116.06;;;20.64;44.78
12785;BME280;6456;42.680;23.260;2022-10-26T12:05:15;95157.06;;;20.95;45.07
12785;BME280;6456;42.680;23.260;2022-10-26T12:07:45;95150.34;;;20.87;44.59
12785;BME280;6456;42.680;23.260;2022-10-26T12:10:22;95152.00;;;20.98;43.83
12785;BME280;6456;42.680;23.260;2022-10-26T12:12:57;95107.25;;;20.64;45.11
12785;BME280;6456;42.680;23.260;2022-10-26T12:15:29;95090.66;;;20.67;44.42
12785;BME280;6456;42.680;23.260;2022-10-26T12:18:03;95081.78;;;20.46;43.85
12785;BME280;6456;42.680;23.260;2022-10-26T12:20:53;95156.50;;;20.88;43.07
12785;BME280;6456;42.680;23.260;2022-10-26T12:23:21;95102.44;;;20.66;43.35
12785;BME280;6456;42.680;23.260;2022-10-26T12:25:49;95147.44;;;20.94;44.87
12785;BME280;6456;42.680;23.260;2022-10-26T12:28:39;95149.03;;;21.00;43.66
12785;BME280;6456;42.680;23.260;2022-10-26T12:31:40;95140.19;;;20.94;42.51
12785;BME280;6456;42.680;23.260;2022-10-26T12:34:11;95145.34;;;21.06;43.17
12785;BME280;6456;42.680;23.260;2022-10-26T12:36:49;95105.16;;;20.86;41.67
12785;BME280;6456;42.680;23.260;2022-10-26T12:39:26;95107.03;;;20.90;43.24
12785;BME280;6456;42.680;23.260;2022-10-26T12:41:56;95156.59;;;21.13;41.91
12785;BME280;6456;42.680;23.260;2022-10-26T12:44:36;95148.59;;;21.18;41.12
12785;BME280;6456;42.680;23.260;2022-10-26T12:47:04;95152.88;;;21.19;39.66
12785;BME280;6456;42.680;23.260;2022-10-26T13:08:03;95150.47;;;21.18;36.29
12785;BME280;6456;42.680;23.260;2022-10-26T13:10:33;95149.41;;;21.24;35.86
12785;BME280;6456;42.680;23.260;2022-10-26T13:13:01;95100.06;;;20.89;36.67
12785;BME280;6456;42.680;23.260;2022-10-26T13:15:34;95150.75;;;21.31;34.79
12785;BME280;6456;42.680;23.260;2022-10-26T13:18:08;95145.41;;;21.31;35.92
12785;BME280;6456;42.680;23.260;2022-10-26T13:20:51;95104.09;;;21.02;35.79
12785;BME280;6456;42.680;23.260;2022-10-26T13:23:24;95143.25;;;21.33;34.58
12785;BME280;6456;42.680;23.260;2022-10-26T13:26:05;95061.25;;;20.72;35.68
12785;BME280;6456;42.680;23.260;2022-10-26T13:28:43;95127.47;;;21.22;34.24
12785;BME280;6456;42.680;23.260;2022-10-26T13:31:17;95113.25;;;21.16;33.91
12785;BME280;6456;42.680;23.260;2022-10-26T13:34:09;95154.25;;;21.37;33.98
12785;BME280;6456;42.680;23.260;2022-10-26T13:36:41;95159.03;;;21.40;34.16
12785;BME280;6456;42.680;23.260;2022-10-26T13:39:15;95110.00;;;21.04;33.35
12785;BME280;6456;42.680;23.260;2022-10-26T13:41:45;95160.38;;;21.27;33.48